Time;durP1;ratioP1;P1;durP2;ratioP2;P2;SDS_P1;SDS_P2;PMS_P1;PMS_P2;Temp;Humidity;BMP_temperature;BMP_pressure;BME280_temperature;BME280_humidity;BME280_pressure;Samples;Min_cycle;Max_cycle;Signal;HPM_P1;HPM_P2
2022/03/10 00:00:38;;;;;;;;;;;21.90;50.90;;;;;;5016121;28;947;-45
2022/03/10 00:03:05;;;;;;;;;;;21.90;50.90;;;;;;5016225;28;2062;-45
2022/03/10 00:05:34;;;;;;;;;;;21.90;50.90;;;;;;5015272;28;2079;-45
2022/03/10 00:08:04;;;;;;;;;;;21.90;51.00;;;;;;5015494;28;1120;-45
2022/03/10 00:10:33;;;;;;;;;;;21.90;50.90;;;;;;5015119;28;1910;-45
2022/03/10 00:13:01;;;;;;;;;;;21.90;50.90;;;;;;5015142;28;1001;-44
2022/03/10 00:15:29;;;;;;;;;;;21.90;50.80;;;;;;5016771;28;1007;-45
2022/03/10 00:17:56;;;;;;;;;;;21.80;50.90;;;;;;5016619;28;1491;-45
2022/03/10 00:20:23;;;;;;;;;;;21.90;50.90;;;;;;5016072;28;2858;-46
2022/03/10 00:22:51;;;;;;;;;;;21.80;50.80;;;;;;5016822;28;986;-45
2022/03/10 00:25:19;;;;;;;;;;;21.80;50.80;;;;;;5015606;28;948;-46
2022/03/10 00:27:47;;;;;;;;;;;21.80;50.90;;;;;;5015642;28;971;-45
2022/03/10 00:30:14;;;;;;;;;;;21.80;50.80;;;;;;5016693;28;1900;-45
2022/03/10 00:32:42;;;;;;;;;;;21.80;50.80;;;;;;5017862;28;928;-45
2022/03/10 00:35:09;;;;;;;;;;;21.80;50.80;;;;;;5017430;28;837;-45
2022/03/10 00:37:36;;;;;;;;;;;21.70;50.80;;;;;;5016862;28;1001;-47
2022/03/10 00:40:03;;;;;;;;;;;21.70;50.80;;;;;;5017739;28;975;-45
2022/03/10 00:42:35;;;;;;;;;;;21.70;50.80;;;;;;5017239;28;972;-45
2022/03/10 00:45:03;;;;;;;;;;;21.70;50.80;;;;;;5016791;28;988;-45
2022/03/10 00:47:30;;;;;;;;;;;21.70;50.90;;;;;;5017065;28;1019;-42
2022/03/10 00:49:57;;;;;;;;;;;21.70;50.80;;;;;;5016448;28;1007;-42
2022/03/10 00:52:24;;;;;;;;;;;21.70;50.80;;;;;;5015815;28;1903;-42
2022/03/10 00:54:51;;;;;;;;;;;21.70;50.90;;;;;;5015792;28;1035;-42
2022/03/10 00:57:18;;;;;;;;;;;21.70;50.80;;;;;;5016603;28;1007;-42
2022/03/10 00:59:44;;;;;;;;;;;21.70;50.80;;;;;;5016592;28;1018;-42
2022/03/10 01:02:12;;;;;;;;;;;21.70;50.80;;;;;;5016917;28;1005;-42
2022/03/10 01:04:41;;;;;;;;;;;21.70;50.80;;;;;;5016841;28;983;-43
2022/03/10 01:07:07;;;;;;;;;;;21.70;50.80;;;;;;5016875;28;978;-42
2022/03/10 01:09:34;;;;;;;;;;;21.70;50.80;;;;;;5015363;28;1213;-42
2022/03/10 01:12:01;;;;;;;;;;;21.70;50.80;;;;;;5015640;28;1894;-42
2022/03/10 01:14:28;;;;;;;;;;;21.70;50.80;;;;;;5016265;28;869;-42
2022/03/10 01:16:56;;;;;;;;;;;21.70;50.80;;;;;;5016140;28;1000;-42
2022/03/10 01:19:24;;;;;;;;;;;21.70;50.80;;;;;;5015584;28;991;-42
2022/03/10 01:21:51;;;;;;;;;;;21.70;50.80;;;;;;5016159;28;983;-42
2022/03/10 01:24:18;;;;;;;;;;;21.70;50.80;;;;;;5015459;28;1003;-42
2022/03/10 01:26:44;;;;;;;;;;;21.60;50.80;;;;;;5016147;28;976;-47
2022/03/10 01:29:13;;;;;;;;;;;21.60;50.80;;;;;;5016726;28;980;-43
2022/03/10 01:31:39;;;;;;;;;;;21.60;50.70;;;;;;5015490;28;1898;-43
2022/03/10 01:34:06;;;;;;;;;;;21.60;50.70;;;;;;5014970;28;992;-42
2022/03/10 01:36:34;;;;;;;;;;;21.60;50.70;;;;;;5015890;28;995;-42
2022/03/10 01:39:04;;;;;;;;;;;21.60;50.80;;;;;;5016226;28;1000;-42
2022/03/10 01:41:32;;;;;;;;;;;21.60;50.80;;;;;;5015451;28;963;-41
2022/03/10 01:43:59;;;;;;;;;;;21.60;50.80;;;;;;5015633;28;963;-42
2022/03/10 01:46:27;;;;;;;;;;;21.60;50.80;;;;;;5016200;28;1019;-42
2022/03/10 01:48:53;;;;;;;;;;;21.60;50.80;;;;;;5015997;28;988;-42
2022/03/10 01:51:20;;;;;;;;;;;21.50;50.70;;;;;;5015804;28;1910;-43
2022/03/10 01:53:50;;;;;;;;;;;21.50;50.70;;;;;;5016350;28;927;-42
2022/03/10 01:56:17;;;;;;;;;;;21.50;50.70;;;;;;5015880;28;1395;-42
2022/03/10 01:58:44;;;;;;;;;;;21.50;50.70;;;;;;5015849;28;956;-42
2022/03/10 02:01:11;;;;;;;;;;;21.50;50.70;;;;;;5016064;28;1111;-43
2022/03/10 02:03:38;;;;;;;;;;;21.50;50.70;;;;;;5015655;28;932;-43
2022/03/10 02:06:05;;;;;;;;;;;21.50;50.60;;;;;;5015935;28;1000;-42
2022/03/10 02:11:19;;;;;;;;;;;21.50;50.70;;;;;;5015014;28;1995;-42
2022/03/10 02:13:46;;;;;;;;;;;21.50;50.70;;;;;;5015568;28;899;-43
2022/03/10 02:18:57;;;;;;;;;;;21.50;50.70;;;;;;5015651;28;639;-46
2022/03/10 02:21:26;;;;;;;;;;;21.50;50.70;;;;;;5016388;28;979;-47
2022/03/10 02:23:58;;;;;;;;;;;21.40;50.70;;;;;;5017031;28;987;-43
2022/03/10 02:26:26;;;;;;;;;;;21.40;50.70;;;;;;5016771;28;1157;-43
2022/03/10 02:28:53;;;;;;;;;;;21.40;50.60;;;;;;5016685;28;1426;-43
2022/03/10 02:31:21;;;;;;;;;;;21.40;50.50;;;;;;5015867;28;1899;-43
2022/03/10 02:33:58;;;;;;;;;;;21.40;50.50;;;;;;5017027;28;1463;-44
2022/03/10 02:36:29;;;;;;;;;;;21.40;50.50;;;;;;5015285;28;1139;-45
2022/03/10 02:39:00;;;;;;;;;;;21.50;50.60;;;;;;5016510;28;916;-45
2022/03/10 02:41:28;;;;;;;;;;;21.40;50.50;;;;;;5016262;28;1631;-45
2022/03/10 02:43:55;;;;;;;;;;;21.40;50.40;;;;;;5017264;28;930;-45
2022/03/10 02:46:23;;;;;;;;;;;21.40;50.40;;;;;;5016831;28;1760;-47
2022/03/10 02:48:50;;;;;;;;;;;21.40;50.40;;;;;;5017201;28;1524;-44
2022/03/10 02:51:17;;;;;;;;;;;21.40;50.40;;;;;;5019895;28;1910;-44
2022/03/10 02:53:44;;;;;;;;;;;21.40;50.50;;;;;;5019649;28;1967;-47
2022/03/10 02:56:16;;;;;;;;;;;21.40;50.50;;;;;;5019109;28;954;-45
2022/03/10 02:58:43;;;;;;;;;;;21.40;50.50;;;;;;5019780;28;947;-45
2022/03/10 03:01:10;;;;;;;;;;;21.40;50.40;;;;;;5019438;28;1843;-47
2022/03/10 03:03:37;;;;;;;;;;;21.40;50.40;;;;;;5019713;28;2339;-45
2022/03/10 03:06:04;;;;;;;;;;;21.40;50.40;;;;;;5019449;28;930;-47
2022/03/10 03:08:31;;;;;;;;;;;21.40;50.30;;;;;;5019416;28;1334;-48
2022/03/10 03:10:59;;;;;;;;;;;21.40;50.30;;;;;;5019395;28;1981;-46
2022/03/10 03:13:28;;;;;;;;;;;21.40;50.30;;;;;;5019658;28;1251;-45
2022/03/10 03:15:55;;;;;;;;;;;21.40;50.30;;;;;;5019595;28;1036;-47
2022/03/10 03:21:38;;;;;;;;;;;21.30;50.40;;;;;;5018592;28;1010;-48
2022/03/10 03:24:06;;;;;;;;;;;21.30;50.30;;;;;;5019324;28;1874;-44
2022/03/10 03:26:33;;;;;;;;;;;21.30;50.40;;;;;;5019005;28;1037;-44
2022/03/10 03:29:03;;;;;;;;;;;21.30;50.40;;;;;;5018218;28;943;-46
2022/03/10 03:31:30;;;;;;;;;;;21.30;50.40;;;;;;5018579;28;1975;-45
2022/03/10 03:33:57;;;;;;;;;;;21.30;50.40;;;;;;5018421;28;1149;-43
2022/03/10 03:36:27;;;;;;;;;;;21.30;50.40;;;;;;5018725;28;1717;-43
2022/03/10 03:38:56;;;;;;;;;;;21.30;50.40;;;;;;5018721;28;928;-43
2022/03/10 03:41:23;;;;;;;;;;;21.30;50.40;;;;;;5017758;28;1198;-43
2022/03/10 03:43:50;;;;;;;;;;;21.30;50.30;;;;;;5018056;28;982;-43
2022/03/10 03:46:19;;;;;;;;;;;21.30;50.40;;;;;;5018207;28;1545;-43
2022/03/10 03:48:47;;;;;;;;;;;21.30;50.40;;;;;;5018767;28;873;-45
2022/03/10 03:51:15;;;;;;;;;;;21.30;50.30;;;;;;5018953;28;1918;-45
2022/03/10 03:53:46;;;;;;;;;;;21.30;50.20;;;;;;5018628;28;960;-45
2022/03/10 03:56:13;;;;;;;;;;;21.30;50.20;;;;;;5017984;28;1004;-45
2022/03/10 03:58:40;;;;;;;;;;;21.20;50.20;;;;;;5017884;28;1584;-45
2022/03/10 04:01:25;;;;;;;;;;;21.30;50.20;;;;;;5017527;28;1021;-46
2022/03/10 04:03:54;;;;;;;;;;;21.30;50.20;;;;;;5018316;28;952;-45
2022/03/10 04:06:21;;;;;;;;;;;21.30;50.20;;;;;;5019191;28;1036;-47
2022/03/10 04:08:48;;;;;;;;;;;21.20;50.20;;;;;;5018435;28;1655;-45
2022/03/10 04:11:15;;;;;;;;;;;21.20;50.20;;;;;;5018130;28;1902;-43
2022/03/10 04:13:42;;;;;;;;;;;21.30;50.20;;;;;;5018950;28;1790;-43
2022/03/10 04:16:10;;;;;;;;;;;21.20;50.20;;;;;;5019365;28;1003;-42
2022/03/10 04:18:37;;;;;;;;;;;21.20;50.20;;;;;;5018096;28;950;-43
2022/03/10 04:21:06;;;;;;;;;;;21.30;50.30;;;;;;5017607;28;1248;-43
2022/03/10 04:23:34;;;;;;;;;;;21.20;50.20;;;;;;5018203;28;924;-43
2022/03/10 04:26:01;;;;;;;;;;;21.20;50.20;;;;;;5017844;28;1055;-43
2022/03/10 04:28:32;;;;;;;;;;;21.20;50.20;;;;;;5018456;28;1480;-43
2022/03/10 04:30:59;;;;;;;;;;;21.20;50.20;;;;;;5017631;28;966;-43
2022/03/10 04:33:26;;;;;;;;;;;21.20;50.20;;;;;;5018031;28;2002;-47
2022/03/10 04:35:55;;;;;;;;;;;21.20;50.10;;;;;;5017535;28;1110;-46
2022/03/10 04:38:27;;;;;;;;;;;21.20;50.00;;;;;;5018004;28;939;-46
2022/03/10 04:40:55;;;;;;;;;;;21.20;50.10;;;;;;5016764;28;1524;-46
2022/03/10 04:43:22;;;;;;;;;;;21.30;49.90;;;;;;5017418;28;932;-45
2022/03/10 04:45:50;;;;;;;;;;;21.20;49.90;;;;;;5016837;28;1684;-48
2022/03/10 04:48:17;;;;;;;;;;;21.20;50.00;;;;;;5016761;28;932;-48
2022/03/10 04:50:44;;;;;;;;;;;21.20;50.00;;;;;;5017264;28;1630;-46
2022/03/10 04:53:12;;;;;;;;;;;21.20;50.00;;;;;;5017431;28;1906;-48
2022/03/10 04:55:46;;;;;;;;;;;21.20;50.10;;;;;;5017276;28;991;-50
2022/03/10 04:58:15;;;;;;;;;;;21.10;50.10;;;;;;5017328;28;1139;-48
2022/03/10 05:00:45;;;;;;;;;;;21.20;50.00;;;;;;5016680;28;1812;-47
2022/03/10 05:03:13;;;;;;;;;;;21.20;50.00;;;;;;5017256;28;1511;-47
2022/03/10 05:05:40;;;;;;;;;;;21.30;50.00;;;;;;5017294;28;945;-45
2022/03/10 05:08:10;;;;;;;;;;;21.20;49.90;;;;;;5017871;28;1446;-46
2022/03/10 05:10:40;;;;;;;;;;;21.30;49.90;;;;;;5016733;28;1010;-47
2022/03/10 05:13:09;;;;;;;;;;;21.30;49.80;;;;;;5016974;28;1906;-47
2022/03/10 05:15:38;;;;;;;;;;;21.30;49.90;;;;;;5016794;28;1574;-49
2022/03/10 05:18:07;;;;;;;;;;;21.30;50.00;;;;;;5016901;28;1295;-47
2022/03/10 05:20:37;;;;;;;;;;;21.30;50.00;;;;;;5016938;28;1466;-45
2022/03/10 05:23:12;;;;;;;;;;;21.30;50.00;;;;;;5017184;28;1548;-46
2022/03/10 05:25:42;;;;;;;;;;;21.30;50.00;;;;;;5016517;28;1588;-46
2022/03/10 05:28:15;;;;;;;;;;;21.30;50.10;;;;;;5014354;28;2596;-46
2022/03/10 05:30:43;;;;;;;;;;;21.30;50.10;;;;;;5015093;28;980;-46
2022/03/10 05:33:20;;;;;;;;;;;21.30;50.00;;;;;;5013826;28;1898;-48
2022/03/10 05:35:47;;;;;;;;;;;21.30;50.10;;;;;;5013877;28;944;-48
2022/03/10 05:38:17;;;;;;;;;;;21.30;50.10;;;;;;5014166;28;1183;-45
2022/03/10 05:40:44;;;;;;;;;;;21.30;50.10;;;;;;5013859;28;995;-44
2022/03/10 05:43:12;;;;;;;;;;;21.30;50.20;;;;;;5013916;28;956;-44
2022/03/10 05:45:39;;;;;;;;;;;21.30;50.20;;;;;;5014181;28;961;-46
2022/03/10 05:48:06;;;;;;;;;;;21.30;50.10;;;;;;5013541;28;923;-46
2022/03/10 05:50:35;;;;;;;;;;;21.30;50.20;;;;;;5012879;28;931;-46
2022/03/10 05:53:03;;;;;;;;;;;21.30;50.20;;;;;;5013610;28;1979;-47
2022/03/10 05:55:31;;;;;;;;;;;21.30;50.20;;;;;;5012754;28;1047;-46
2022/03/10 05:57:58;;;;;;;;;;;21.30;50.10;;;;;;5012806;28;980;-46
2022/03/10 06:00:26;;;;;;;;;;;21.30;50.00;;;;;;5013578;28;1642;-46
2022/03/10 06:02:53;;;;;;;;;;;21.30;50.00;;;;;;5014791;28;972;-47
2022/03/10 06:05:20;;;;;;;;;;;21.40;50.00;;;;;;5014415;28;984;-46
2022/03/10 06:07:47;;;;;;;;;;;21.40;49.90;;;;;;5015398;28;1058;-46
2022/03/10 06:10:14;;;;;;;;;;;21.40;49.90;;;;;;5015691;28;1702;-46
2022/03/10 06:12:41;;;;;;;;;;;21.40;49.80;;;;;;5014803;28;1993;-46
2022/03/10 06:15:09;;;;;;;;;;;21.40;49.80;;;;;;5006516;28;1038;-45
2022/03/10 06:17:38;;;;;;;;;;;21.40;51.00;;;;;;5011874;28;1453;-45
2022/03/10 06:20:06;;;;;;;;;;;21.40;49.90;;;;;;5013719;28;1035;-45
2022/03/10 06:22:33;;;;;;;;;;;21.40;51.00;;;;;;5011071;28;953;-47
2022/03/10 06:25:00;;;;;;;;;;;21.40;49.80;;;;;;5011477;28;2844;-45
2022/03/10 06:27:28;;;;;;;;;;;21.40;49.70;;;;;;5012110;28;1000;-45
2022/03/10 06:29:55;;;;;;;;;;;21.40;49.70;;;;;;5011820;28;1483;-46
2022/03/10 06:32:23;;;;;;;;;;;21.40;49.60;;;;;;5010499;28;1934;-45
2022/03/10 06:34:53;;;;;;;;;;;21.40;49.60;;;;;;5011439;28;1208;-46
2022/03/10 06:37:19;;;;;;;;;;;21.40;49.60;;;;;;5011594;28;992;-45
2022/03/10 06:39:46;;;;;;;;;;;21.40;49.60;;;;;;5010311;28;985;-46
2022/03/10 06:42:13;;;;;;;;;;;21.40;49.60;;;;;;5012185;28;1505;-45
2022/03/10 06:44:41;;;;;;;;;;;21.40;49.60;;;;;;5013124;28;1063;-47
2022/03/10 06:47:09;;;;;;;;;;;21.40;49.60;;;;;;5012652;28;955;-45
2022/03/10 06:49:36;;;;;;;;;;;21.40;49.70;;;;;;5013393;28;1005;-46
2022/03/10 06:52:05;;;;;;;;;;;21.30;49.70;;;;;;5013029;28;1910;-45
2022/03/10 06:54:31;;;;;;;;;;;21.40;49.60;;;;;;5013954;28;952;-47
2022/03/10 06:56:58;;;;;;;;;;;21.40;49.60;;;;;;5013596;28;924;-45
2022/03/10 06:59:25;;;;;;;;;;;21.40;49.60;;;;;;5011868;28;987;-45
2022/03/10 07:01:52;;;;;;;;;;;21.40;49.70;;;;;;5010856;28;992;-41
2022/03/10 07:04:18;;;;;;;;;;;21.40;49.70;;;;;;5011891;28;972;-40
2022/03/10 07:06:46;;;;;;;;;;;21.40;49.90;;;;;;5012630;28;1462;-39
2022/03/10 07:09:14;;;;;;;;;;;21.40;49.90;;;;;;5009542;28;1193;-40
2022/03/10 07:11:41;;;;;;;;;;;21.40;50.20;;;;;;5011900;28;999;-40
2022/03/10 07:14:08;;;;;;;;;;;21.40;50.10;;;;;;5010318;28;1984;-40
2022/03/10 07:16:34;;;;;;;;;;;21.40;50.20;;;;;;5012057;28;988;-40
2022/03/10 07:19:01;;;;;;;;;;;21.40;50.00;;;;;;5011466;28;988;-41
2022/03/10 07:21:28;;;;;;;;;;;21.30;50.00;;;;;;5011897;28;1012;-40
2022/03/10 07:23:55;;;;;;;;;;;21.40;50.10;;;;;;5011153;28;1117;-41
2022/03/10 07:26:23;;;;;;;;;;;21.40;50.00;;;;;;5011351;28;929;-40
2022/03/10 07:28:50;;;;;;;;;;;21.40;50.00;;;;;;5011187;28;977;-40
2022/03/10 07:31:16;;;;;;;;;;;21.40;50.10;;;;;;5011432;28;927;-40
2022/03/10 07:33:43;;;;;;;;;;;21.40;50.10;;;;;;5012377;28;1906;-40
2022/03/10 07:36:11;;;;;;;;;;;21.40;50.00;;;;;;5015872;28;964;-41
2022/03/10 07:38:37;;;;;;;;;;;21.40;50.00;;;;;;5015416;28;1046;-40
2022/03/10 07:41:04;;;;;;;;;;;21.40;50.00;;;;;;5014605;28;980;-40
2022/03/10 07:43:32;;;;;;;;;;;21.40;49.90;;;;;;5016011;28;996;-40
2022/03/10 07:46:00;;;;;;;;;;;21.40;50.00;;;;;;5013523;28;971;-40
2022/03/10 07:48:27;;;;;;;;;;;21.40;50.00;;;;;;5014565;28;1020;-40
2022/03/10 07:50:55;;;;;;;;;;;21.40;49.90;;;;;;5014754;28;948;-40
2022/03/10 07:53:21;;;;;;;;;;;21.40;49.90;;;;;;5014406;28;1906;-40
2022/03/10 07:55:50;;;;;;;;;;;21.40;49.90;;;;;;5014083;28;1012;-40
2022/03/10 07:58:16;;;;;;;;;;;21.40;49.90;;;;;;5013529;28;1016;-40
2022/03/10 08:00:44;;;;;;;;;;;21.40;50.00;;;;;;5013846;28;944;-40
2022/03/10 08:03:12;;;;;;;;;;;21.40;49.90;;;;;;5013460;28;1220;-41
2022/03/10 08:05:39;;;;;;;;;;;21.40;49.90;;;;;;5012717;28;1148;-41
2022/03/10 08:08:05;;;;;;;;;;;21.40;50.00;;;;;;5013388;28;1088;-40
2022/03/10 08:10:32;;;;;;;;;;;21.40;49.90;;;;;;5012660;28;1024;-40
2022/03/10 08:12:59;;;;;;;;;;;21.40;49.90;;;;;;5011912;28;1902;-40
2022/03/10 08:15:26;;;;;;;;;;;21.40;49.90;;;;;;5013059;28;901;-40
2022/03/10 08:17:54;;;;;;;;;;;21.40;49.90;;;;;;5012543;28;964;-41
2022/03/10 08:20:21;;;;;;;;;;;21.40;49.90;;;;;;5011724;28;872;-40
2022/03/10 08:22:48;;;;;;;;;;;21.40;49.90;;;;;;5012189;28;996;-40
2022/03/10 08:25:15;;;;;;;;;;;21.40;49.90;;;;;;5013468;28;1015;-46
2022/03/10 08:27:43;;;;;;;;;;;21.40;50.00;;;;;;5013668;28;907;-40
2022/03/10 08:30:13;;;;;;;;;;;21.30;49.90;;;;;;5012837;28;1003;-40
2022/03/10 08:32:40;;;;;;;;;;;21.30;49.90;;;;;;5012548;28;1985;-40
2022/03/10 08:35:09;;;;;;;;;;;21.30;49.90;;;;;;5012852;28;1087;-42
2022/03/10 08:37:35;;;;;;;;;;;21.30;49.80;;;;;;5012562;28;907;-40
2022/03/10 08:40:02;;;;;;;;;;;21.40;49.90;;;;;;5013860;28;928;-41
2022/03/10 08:42:29;;;;;;;;;;;21.40;49.80;;;;;;5011299;28;988;-41
2022/03/10 08:44:56;;;;;;;;;;;21.40;49.90;;;;;;5012958;28;1054;-40
2022/03/10 08:47:22;;;;;;;;;;;21.30;49.70;;;;;;5013085;28;1011;-40
2022/03/10 08:49:50;;;;;;;;;;;21.30;49.80;;;;;;5012695;28;1005;-41
2022/03/10 08:52:18;;;;;;;;;;;21.30;49.90;;;;;;5012770;28;925;-40
2022/03/10 08:54:45;;;;;;;;;;;21.40;49.80;;;;;;5012219;28;2874;-42
2022/03/10 08:57:12;;;;;;;;;;;21.30;50.90;;;;;;5012956;28;908;-40
2022/03/10 08:59:39;;;;;;;;;;;21.40;49.90;;;;;;5012526;28;1008;-41
2022/03/10 09:02:06;;;;;;;;;;;21.40;49.80;;;;;;5012747;28;865;-40
2022/03/10 09:04:33;;;;;;;;;;;21.30;49.80;;;;;;5011462;28;933;-41
2022/03/10 09:07:00;;;;;;;;;;;21.40;49.80;;;;;;5011871;28;948;-40
2022/03/10 09:09:28;;;;;;;;;;;21.40;49.90;;;;;;5011351;28;1069;-41
2022/03/10 09:11:55;;;;;;;;;;;21.40;49.80;;;;;;5010605;28;1000;-41
2022/03/10 09:14:22;;;;;;;;;;;21.30;49.80;;;;;;5012523;28;1918;-40
2022/03/10 09:16:51;;;;;;;;;;;21.30;49.90;;;;;;5011595;28;1004;-40
2022/03/10 09:19:19;;;;;;;;;;;21.30;49.80;;;;;;5012466;28;1316;-40
2022/03/10 09:21:45;;;;;;;;;;;21.30;49.90;;;;;;5012578;28;976;-45
2022/03/10 09:24:12;;;;;;;;;;;21.30;49.80;;;;;;5014266;28;992;-40
2022/03/10 09:26:41;;;;;;;;;;;21.30;49.80;;;;;;5012124;28;956;-40
2022/03/10 09:29:08;;;;;;;;;;;21.30;49.80;;;;;;5012621;28;1046;-40
2022/03/10 09:31:35;;;;;;;;;;;21.30;49.80;;;;;;5011828;28;988;-41
2022/03/10 09:34:04;;;;;;;;;;;21.40;49.80;;;;;;5013029;28;1986;-40
2022/03/10 09:36:30;;;;;;;;;;;21.30;49.80;;;;;;5013504;28;936;-41
2022/03/10 09:38:57;;;;;;;;;;;21.40;49.70;;;;;;5011300;28;968;-41
2022/03/10 09:41:24;;;;;;;;;;;21.30;49.70;;;;;;5012183;28;991;-40
2022/03/10 09:43:52;;;;;;;;;;;21.40;49.70;;;;;;5011244;28;955;-40
2022/03/10 09:46:19;;;;;;;;;;;21.40;49.80;;;;;;5003700;28;1076;-40
2022/03/10 09:48:47;;;;;;;;;;;21.40;49.80;;;;;;5012870;28;935;-40
2022/03/10 09:51:13;;;;;;;;;;;21.40;49.80;;;;;;5013426;28;976;-40
2022/03/10 09:53:41;;;;;;;;;;;21.40;49.80;;;;;;5012548;28;1906;-40
2022/03/10 09:56:08;;;;;;;;;;;21.30;49.80;;;;;;5013195;28;932;-41
2022/03/10 09:58:35;;;;;;;;;;;21.30;49.80;;;;;;5012434;28;1034;-40
2022/03/10 10:01:03;;;;;;;;;;;21.30;49.70;;;;;;5012049;28;1008;-40
2022/03/10 10:03:30;;;;;;;;;;;21.30;49.70;;;;;;5012365;28;1050;-41
2022/03/10 10:06:01;;;;;;;;;;;21.30;49.70;;;;;;5013026;28;1016;-40
2022/03/10 10:08:30;;;;;;;;;;;21.30;49.80;;;;;;5012589;28;1030;-41
2022/03/10 10:10:59;;;;;;;;;;;21.30;49.80;;;;;;5012486;28;932;-41
2022/03/10 10:13:27;;;;;;;;;;;21.30;49.70;;;;;;5013095;28;1906;-41
2022/03/10 10:15:55;;;;;;;;;;;21.30;49.70;;;;;;5011373;28;1743;-41
2022/03/10 10:18:23;;;;;;;;;;;21.40;49.70;;;;;;5013093;28;1167;-41
2022/03/10 10:20:51;;;;;;;;;;;21.30;49.70;;;;;;5011994;28;928;-42
2022/03/10 10:23:18;;;;;;;;;;;21.30;49.70;;;;;;5013101;28;1010;-42
2022/03/10 10:25:49;;;;;;;;;;;21.40;49.80;;;;;;5012971;28;975;-42
2022/03/10 10:28:22;;;;;;;;;;;21.30;49.70;;;;;;5013667;28;936;-42
2022/03/10 10:30:52;;;;;;;;;;;21.30;49.60;;;;;;5012756;28;908;-42
2022/03/10 10:33:19;;;;;;;;;;;21.30;49.70;;;;;;5011416;28;1910;-42
2022/03/10 10:35:47;;;;;;;;;;;21.30;49.80;;;;;;5013066;28;944;-42
2022/03/10 10:38:27;;;;;;;;;;;21.30;49.70;;;;;;5013525;28;968;-41
2022/03/10 10:41:14;;;;;;;;;;;21.30;49.80;;;;;;5013717;28;1060;-41
2022/03/10 10:43:41;;;;;;;;;;;21.40;49.70;;;;;;5013376;28;937;-41
2022/03/10 10:46:08;;;;;;;;;;;21.30;49.70;;;;;;5012510;28;1031;-47
2022/03/10 10:48:45;;;;;;;;;;;21.30;49.70;;;;;;5012573;28;968;-41
2022/03/10 10:51:14;;;;;;;;;;;21.30;49.70;;;;;;5012469;28;984;-41
2022/03/10 10:53:41;;;;;;;;;;;21.30;49.60;;;;;;5011211;28;1975;-40
2022/03/10 10:56:07;;;;;;;;;;;21.30;49.70;;;;;;5012857;28;1011;-41
2022/03/10 10:58:34;;;;;;;;;;;21.30;49.60;;;;;;5012170;28;991;-40
2022/03/10 11:01:01;;;;;;;;;;;21.30;49.60;;;;;;5012676;28;920;-41
2022/03/10 11:03:31;;;;;;;;;;;21.30;49.50;;;;;;5011861;28;1028;-40
2022/03/10 11:05:59;;;;;;;;;;;21.30;49.60;;;;;;5012796;28;960;-40
2022/03/10 11:08:28;;;;;;;;;;;21.30;49.50;;;;;;5011696;28;1401;-41
2022/03/10 11:10:55;;;;;;;;;;;21.30;49.60;;;;;;5014802;28;940;-40
2022/03/10 11:13:22;;;;;;;;;;;21.30;49.50;;;;;;5013333;28;944;-40
2022/03/10 11:15:49;;;;;;;;;;;21.30;49.50;;;;;;5016040;28;1910;-40
2022/03/10 11:18:16;;;;;;;;;;;21.30;49.50;;;;;;5016212;28;1003;-41
2022/03/10 11:20:45;;;;;;;;;;;21.40;49.50;;;;;;5015636;28;1043;-41
2022/03/10 11:23:18;;;;;;;;;;;21.40;49.50;;;;;;5013944;28;1021;-40
2022/03/10 11:25:48;;;;;;;;;;;21.30;49.40;;;;;;5013375;28;1003;-45
2022/03/10 11:28:18;;;;;;;;;;;21.40;49.50;;;;;;5012710;28;1000;-40
2022/03/10 11:30:49;;;;;;;;;;;21.40;49.50;;;;;;5013202;28;837;-40
2022/03/10 11:33:16;;;;;;;;;;;21.30;49.50;;;;;;5013203;28;1015;-45
2022/03/10 11:35:44;;;;;;;;;;;21.40;49.60;;;;;;5011765;28;1999;-40
2022/03/10 11:38:11;;;;;;;;;;;21.40;49.50;;;;;;5013355;28;1036;-40
2022/03/10 11:40:42;;;;;;;;;;;21.40;49.50;;;;;;5014093;28;963;-40
2022/03/10 11:43:10;;;;;;;;;;;21.40;50.60;;;;;;5012951;28;918;-40
2022/03/10 11:45:37;;;;;;;;;;;21.40;49.50;;;;;;5013761;28;984;-41
2022/03/10 11:48:22;;;;;;;;;;;21.40;49.50;;;;;;5015936;28;960;-46
2022/03/10 11:50:50;;;;;;;;;;;21.40;49.40;;;;;;5014601;28;1032;-40
2022/03/10 11:53:16;;;;;;;;;;;21.40;49.50;;;;;;5014794;28;1713;-40
2022/03/10 11:55:45;;;;;;;;;;;21.40;49.40;;;;;;5015338;28;1918;-40
2022/03/10 11:58:14;;;;;;;;;;;21.40;49.60;;;;;;5014474;28;943;-41
2022/03/10 12:00:48;;;;;;;;;;;21.30;49.50;;;;;;5015516;28;999;-50
2022/03/10 12:03:26;;;;;;;;;;;21.40;49.60;;;;;;5014852;28;1086;-40
2022/03/10 12:05:55;;;;;;;;;;;21.40;49.60;;;;;;5015667;28;944;-41
2022/03/10 12:08:23;;;;;;;;;;;21.40;50.70;;;;;;5013740;28;1077;-40
2022/03/10 12:10:50;;;;;;;;;;;21.40;49.60;;;;;;5012892;28;943;-41
2022/03/10 12:13:27;;;;;;;;;;;21.40;49.50;;;;;;5012038;28;1028;-40
2022/03/10 12:15:54;;;;;;;;;;;21.40;49.40;;;;;;5012294;28;1981;-40
2022/03/10 12:18:25;;;;;;;;;;;21.40;49.50;;;;;;5013195;28;912;-40
2022/03/10 12:20:54;;;;;;;;;;;21.40;49.50;;;;;;5012377;28;931;-40
2022/03/10 12:23:23;;;;;;;;;;;21.40;49.50;;;;;;5013685;28;967;-41
2022/03/10 12:25:52;;;;;;;;;;;21.40;49.50;;;;;;5013725;28;995;-40
2022/03/10 12:28:24;;;;;;;;;;;21.40;49.50;;;;;;5014289;28;1550;-40
2022/03/10 12:30:59;;;;;;;;;;;21.40;49.40;;;;;;5014500;28;888;-40
2022/03/10 12:33:26;;;;;;;;;;;21.40;49.40;;;;;;5014721;28;1006;-40
2022/03/10 12:35:55;;;;;;;;;;;21.40;49.60;;;;;;5013089;28;1984;-41
2022/03/10 12:38:34;;;;;;;;;;;21.40;49.40;;;;;;5013446;28;998;-40
2022/03/10 12:41:02;;;;;;;;;;;21.40;49.30;;;;;;5013875;28;956;-40
2022/03/10 12:43:28;;;;;;;;;;;21.40;49.40;;;;;;5014516;28;899;-40
2022/03/10 12:45:57;;;;;;;;;;;21.40;49.30;;;;;;5013506;28;901;-40
2022/03/10 12:48:27;;;;;;;;;;;21.40;49.40;;;;;;5014476;28;995;-40
2022/03/10 12:50:54;;;;;;;;;;;21.40;49.30;;;;;;5013738;28;1058;-40
2022/03/10 12:53:21;;;;;;;;;;;21.40;49.30;;;;;;5013861;28;1068;-41
2022/03/10 12:55:54;;;;;;;;;;;21.40;49.30;;;;;;5013081;28;1906;-40
2022/03/10 12:58:28;;;;;;;;;;;21.40;49.40;;;;;;5014454;28;1051;-40
2022/03/10 13:01:03;;;;;;;;;;;21.40;49.40;;;;;;5014550;28;1012;-43
2022/03/10 13:03:34;;;;;;;;;;;21.40;49.50;;;;;;5014181;28;979;-40
2022/03/10 13:06:02;;;;;;;;;;;21.40;49.30;;;;;;5014935;28;940;-39
2022/03/10 13:08:29;;;;;;;;;;;21.40;49.40;;;;;;5013902;28;1399;-40
2022/03/10 13:11:00;;;;;;;;;;;21.40;49.40;;;;;;5013619;28;937;-42
2022/03/10 13:13:30;;;;;;;;;;;21.40;49.30;;;;;;5012700;28;1007;-42
2022/03/10 13:16:01;;;;;;;;;;;21.40;49.40;;;;;;5013839;28;1966;-44
2022/03/10 13:18:28;;;;;;;;;;;21.40;49.30;;;;;;5012021;28;994;-42
2022/03/10 13:20:58;;;;;;;;;;;21.40;49.30;;;;;;5013452;28;1032;-42
2022/03/10 13:23:25;;;;;;;;;;;21.40;49.30;;;;;;5013412;28;952;-42
2022/03/10 13:25:52;;;;;;;;;;;21.40;49.30;;;;;;5014235;28;972;-46
2022/03/10 13:28:19;;;;;;;;;;;21.40;49.20;;;;;;5013525;28;992;-42
2022/03/10 13:30:46;;;;;;;;;;;21.40;49.20;;;;;;5013606;28;1000;-42
2022/03/10 13:33:15;;;;;;;;;;;21.40;49.30;;;;;;5011250;28;1865;-42
2022/03/10 13:35:43;;;;;;;;;;;21.40;49.20;;;;;;5009877;28;1983;-42
2022/03/10 13:38:14;;;;;;;;;;;21.40;49.40;;;;;;5011951;28;876;-42
2022/03/10 13:40:41;;;;;;;;;;;21.40;49.30;;;;;;5013760;28;734;-42
2022/03/10 13:43:08;;;;;;;;;;;21.40;49.30;;;;;;5013433;28;864;-42
2022/03/10 13:45:41;;;;;;;;;;;21.50;49.30;;;;;;5009879;28;991;-42
2022/03/10 13:48:16;;;;;;;;;;;21.40;49.20;;;;;;5013341;28;928;-45
2022/03/10 13:50:45;;;;;;;;;;;21.50;49.20;;;;;;5014093;28;1043;-42
2022/03/10 13:53:11;;;;;;;;;;;21.50;49.30;;;;;;5014870;28;1046;-42
2022/03/10 13:55:43;;;;;;;;;;;21.50;49.20;;;;;;5013394;28;1984;-42
2022/03/10 13:58:10;;;;;;;;;;;21.50;49.20;;;;;;5014527;28;1016;-41
2022/03/10 14:00:37;;;;;;;;;;;21.50;49.30;;;;;;5012578;28;987;-42
2022/03/10 14:03:05;;;;;;;;;;;21.50;49.20;;;;;;5013305;28;997;-42
2022/03/10 14:05:39;;;;;;;;;;;21.50;49.20;;;;;;5013812;28;940;-42
2022/03/10 14:08:14;;;;;;;;;;;21.50;49.10;;;;;;5013062;28;1038;-42
2022/03/10 14:10:41;;;;;;;;;;;21.50;49.10;;;;;;5013579;28;1036;-43
2022/03/10 14:13:08;;;;;;;;;;;21.60;49.20;;;;;;5010220;28;1003;-42
2022/03/10 14:15:36;;;;;;;;;;;21.60;49.10;;;;;;5011294;28;1986;-41
2022/03/10 14:18:07;;;;;;;;;;;21.60;49.10;;;;;;5011747;28;993;-42
2022/03/10 14:20:48;;;;;;;;;;;21.60;49.10;;;;;;5013570;28;1023;-43
2022/03/10 14:23:17;;;;;;;;;;;21.60;49.10;;;;;;5013824;28;972;-43
2022/03/10 14:25:45;;;;;;;;;;;21.70;49.00;;;;;;5014433;28;944;-42
2022/03/10 14:28:13;;;;;;;;;;;21.70;49.00;;;;;;5013057;28;1006;-42
2022/03/10 14:30:40;;;;;;;;;;;21.70;49.00;;;;;;5012766;28;1047;-42
2022/03/10 14:33:07;;;;;;;;;;;21.70;49.00;;;;;;5011120;28;1014;-42
2022/03/10 14:35:35;;;;;;;;;;;21.70;48.90;;;;;;5011674;28;1985;-42
2022/03/10 14:38:02;;;;;;;;;;;21.70;49.00;;;;;;5011960;28;1024;-42
2022/03/10 14:40:30;;;;;;;;;;;21.70;49.00;;;;;;5011170;28;988;-42
2022/03/10 14:42:58;;;;;;;;;;;21.70;48.90;;;;;;5011509;28;2048;-42
2022/03/10 14:45:27;;;;;;;;;;;21.80;49.00;;;;;;5012597;28;1719;-43
2022/03/10 14:47:55;;;;;;;;;;;21.70;48.90;;;;;;5013976;28;1386;-43
2022/03/10 14:50:22;;;;;;;;;;;21.80;49.00;;;;;;5012069;28;849;-42